sensor_id;sensor_type;location;lat;lon;timestamp;P1;durP1;ratioP1;P2;durP2;ratioP2
5912;SDS011;2982;42.684;23.356;2022-10-16T00:01:37;11.20;;;9.70;;
5912;SDS011;2982;42.684;23.356;2022-10-16T00:04:03;15.47;;;10.43;;
5912;SDS011;2982;42.684;23.356;2022-10-16T00:06:28;12.10;;;10.10;;
5912;SDS011;2982;42.684;23.356;2022-10-16T00:08:57;11.27;;;9.40;;
5912;SDS011;2982;42.684;23.356;2022-10-16T00:11:24;11.20;;;9.87;;
5912;SDS011;2982;42.684;23.356;2022-10-16T00:13:51;13.23;;;9.70;;
5912;SDS011;2982;42.684;23.356;2022-10-16T00:16:19;18.80;;;10.07;;
5912;SDS011;2982;42.684;23.356;2022-10-16T00:18:45;14.17;;;10.30;;
5912;SDS011;2982;42.684;23.356;2022-10-16T00:21:11;13.10;;;11.20;;
5912;SDS011;2982;42.684;23.356;2022-10-16T00:23:38;17.00;;;10.40;;
5912;SDS011;2982;42.684;23.356;2022-10-16T00:26:06;14.23;;;9.70;;
5912;SDS011;2982;42.684;23.356;2022-10-16T00:28:33;17.17;;;10.20;;
5912;SDS011;2982;42.684;23.356;2022-10-16T00:30:59;13.37;;;10.37;;
5912;SDS011;2982;42.684;23.356;2022-10-16T00:33:28;13.93;;;9.73;;
5912;SDS011;2982;42.684;23.356;2022-10-16T00:35:53;13.13;;;11.10;;
5912;SDS011;2982;42.684;23.356;2022-10-16T00:38:18;16.43;;;11.60;;
5912;SDS011;2982;42.684;23.356;2022-10-16T00:40:44;13.70;;;10.53;;
5912;SDS011;2982;42.684;23.356;2022-10-16T00:43:12;15.30;;;11.80;;
5912;SDS011;2982;42.684;23.356;2022-10-16T00:45:39;15.50;;;9.87;;
5912;SDS011;2982;42.684;23.356;2022-10-16T00:48:06;16.57;;;11.13;;
5912;SDS011;2982;42.684;23.356;2022-10-16T00:50:37;11.97;;;10.73;;
5912;SDS011;2982;42.684;23.356;2022-10-16T00:53:03;11.73;;;10.50;;
5912;SDS011;2982;42.684;23.356;2022-10-16T00:55:28;13.47;;;10.80;;
5912;SDS011;2982;42.684;23.356;2022-10-16T00:57:54;14.50;;;11.37;;
5912;SDS011;2982;42.684;23.356;2022-10-16T01:00:24;10.63;;;9.40;;
5912;SDS011;2982;42.684;23.356;2022-10-16T01:02:55;16.90;;;11.33;;
5912;SDS011;2982;42.684;23.356;2022-10-16T01:05:22;15.13;;;11.73;;
5912;SDS011;2982;42.684;23.356;2022-10-16T01:07:56;14.00;;;10.67;;
5912;SDS011;2982;42.684;23.356;2022-10-16T01:10:35;14.13;;;10.60;;
5912;SDS011;2982;42.684;23.356;2022-10-16T01:13:03;13.90;;;10.30;;
5912;SDS011;2982;42.684;23.356;2022-10-16T01:18:07;16.53;;;10.70;;
5912;SDS011;2982;42.684;23.356;2022-10-16T01:20:47;14.80;;;11.23;;
5912;SDS011;2982;42.684;23.356;2022-10-16T01:28:42;12.60;;;10.47;;
5912;SDS011;2982;42.684;23.356;2022-10-16T01:31:10;14.50;;;11.33;;
5912;SDS011;2982;42.684;23.356;2022-10-16T01:33:43;16.93;;;13.30;;
5912;SDS011;2982;42.684;23.356;2022-10-16T01:36:16;14.37;;;11.20;;
5912;SDS011;2982;42.684;23.356;2022-10-16T01:38:47;15.73;;;11.17;;
5912;SDS011;2982;42.684;23.356;2022-10-16T01:41:15;12.13;;;10.40;;
5912;SDS011;2982;42.684;23.356;2022-10-16T01:43:44;15.53;;;10.87;;
5912;SDS011;2982;42.684;23.356;2022-10-16T01:46:15;17.10;;;11.10;;
5912;SDS011;2982;42.684;23.356;2022-10-16T01:48:44;14.33;;;11.30;;
5912;SDS011;2982;42.684;23.356;2022-10-16T01:51:11;13.60;;;10.30;;
5912;SDS011;2982;42.684;23.356;2022-10-16T01:53:39;16.30;;;10.20;;
5912;SDS011;2982;42.684;23.356;2022-10-16T01:56:08;13.10;;;11.60;;
5912;SDS011;2982;42.684;23.356;2022-10-16T01:58:37;15.10;;;10.40;;
5912;SDS011;2982;42.684;23.356;2022-10-16T02:01:08;12.60;;;9.97;;
5912;SDS011;2982;42.684;23.356;2022-10-16T02:03:36;13.47;;;10.80;;
5912;SDS011;2982;42.684;23.356;2022-10-16T02:06:03;15.70;;;11.87;;
5912;SDS011;2982;42.684;23.356;2022-10-16T02:08:29;18.60;;;10.93;;
5912;SDS011;2982;42.684;23.356;2022-10-16T02:10:56;14.53;;;10.60;;
5912;SDS011;2982;42.684;23.356;2022-10-16T02:13:24;20.43;;;11.67;;
5912;SDS011;2982;42.684;23.356;2022-10-16T02:15:54;15.73;;;10.47;;
5912;SDS011;2982;42.684;23.356;2022-10-16T02:18:19;16.43;;;11.90;;
5912;SDS011;2982;42.684;23.356;2022-10-16T02:20:50;12.87;;;11.27;;
5912;SDS011;2982;42.684;23.356;2022-10-16T02:26:10;15.27;;;10.20;;
5912;SDS011;2982;42.684;23.356;2022-10-16T02:28:42;14.40;;;10.93;;
5912;SDS011;2982;42.684;23.356;2022-10-16T02:31:18;12.67;;;10.10;;
5912;SDS011;2982;42.684;23.356;2022-10-16T02:33:48;12.73;;;11.00;;
5912;SDS011;2982;42.684;23.356;2022-10-16T02:36:16;11.37;;;9.67;;
5912;SDS011;2982;42.684;23.356;2022-10-16T02:38:42;16.23;;;12.07;;
5912;SDS011;2982;42.684;23.356;2022-10-16T02:41:08;14.70;;;11.13;;
5912;SDS011;2982;42.684;23.356;2022-10-16T02:43:33;13.60;;;11.53;;
5912;SDS011;2982;42.684;23.356;2022-10-16T02:45:59;21.77;;;12.40;;
5912;SDS011;2982;42.684;23.356;2022-10-16T02:48:24;17.23;;;12.53;;
5912;SDS011;2982;42.684;23.356;2022-10-16T02:50:50;13.50;;;11.27;;
5912;SDS011;2982;42.684;23.356;2022-10-16T02:53:15;14.97;;;11.63;;
5912;SDS011;2982;42.684;23.356;2022-10-16T02:55:40;15.03;;;11.60;;
5912;SDS011;2982;42.684;23.356;2022-10-16T02:58:06;19.33;;;11.93;;
5912;SDS011;2982;42.684;23.356;2022-10-16T03:00:31;15.23;;;11.53;;
5912;SDS011;2982;42.684;23.356;2022-10-16T03:02:56;13.67;;;10.13;;
5912;SDS011;2982;42.684;23.356;2022-10-16T03:05:21;15.33;;;10.97;;
5912;SDS011;2982;42.684;23.356;2022-10-16T03:07:47;14.37;;;10.40;;
5912;SDS011;2982;42.684;23.356;2022-10-16T03:10:12;11.73;;;9.93;;
5912;SDS011;2982;42.684;23.356;2022-10-16T03:12:37;17.50;;;10.83;;
5912;SDS011;2982;42.684;23.356;2022-10-16T03:15:03;11.87;;;10.43;;
5912;SDS011;2982;42.684;23.356;2022-10-16T03:17:28;16.47;;;10.33;;
5912;SDS011;2982;42.684;23.356;2022-10-16T03:19:53;12.20;;;9.67;;
5912;SDS011;2982;42.684;23.356;2022-10-16T03:22:19;11.23;;;9.33;;
5912;SDS011;2982;42.684;23.356;2022-10-16T03:24:44;10.93;;;9.80;;
5912;SDS011;2982;42.684;23.356;2022-10-16T03:27:09;10.93;;;9.63;;
5912;SDS011;2982;42.684;23.356;2022-10-16T03:29:34;10.90;;;9.87;;
5912;SDS011;2982;42.684;23.356;2022-10-16T03:32:00;11.57;;;9.17;;
5912;SDS011;2982;42.684;23.356;2022-10-16T03:34:26;9.40;;;8.53;;
5912;SDS011;2982;42.684;23.356;2022-10-16T03:36:51;13.23;;;8.70;;
5912;SDS011;2982;42.684;23.356;2022-10-16T03:39:17;10.60;;;8.10;;
5912;SDS011;2982;42.684;23.356;2022-10-16T03:41:42;8.73;;;7.10;;
5912;SDS011;2982;42.684;23.356;2022-10-16T03:44:07;7.80;;;7.03;;
5912;SDS011;2982;42.684;23.356;2022-10-16T03:46:33;7.10;;;6.50;;
5912;SDS011;2982;42.684;23.356;2022-10-16T03:48:58;7.87;;;7.17;;
5912;SDS011;2982;42.684;23.356;2022-10-16T03:51:23;10.23;;;7.73;;
5912;SDS011;2982;42.684;23.356;2022-10-16T03:53:48;7.77;;;7.00;;
5912;SDS011;2982;42.684;23.356;2022-10-16T03:56:14;11.30;;;8.40;;
5912;SDS011;2982;42.684;23.356;2022-10-16T03:58:39;8.60;;;7.80;;
5912;SDS011;2982;42.684;23.356;2022-10-16T04:01:04;10.40;;;7.87;;
5912;SDS011;2982;42.684;23.356;2022-10-16T04:03:29;8.87;;;8.07;;
5912;SDS011;2982;42.684;23.356;2022-10-16T04:05:55;8.93;;;8.10;;
5912;SDS011;2982;42.684;23.356;2022-10-16T04:08:20;11.90;;;7.27;;
5912;SDS011;2982;42.684;23.356;2022-10-16T04:10:46;9.03;;;7.50;;
5912;SDS011;2982;42.684;23.356;2022-10-16T04:13:12;7.70;;;7.00;;
5912;SDS011;2982;42.684;23.356;2022-10-16T04:15:37;9.20;;;8.13;;
5912;SDS011;2982;42.684;23.356;2022-10-16T04:18:03;10.37;;;7.73;;
5912;SDS011;2982;42.684;23.356;2022-10-16T04:20:29;8.90;;;7.53;;
5912;SDS011;2982;42.684;23.356;2022-10-16T04:22:55;9.70;;;7.73;;
5912;SDS011;2982;42.684;23.356;2022-10-16T04:25:30;12.87;;;8.90;;
5912;SDS011;2982;42.684;23.356;2022-10-16T04:27:56;7.97;;;7.07;;
5912;SDS011;2982;42.684;23.356;2022-10-16T04:30:21;13.00;;;7.80;;
5912;SDS011;2982;42.684;23.356;2022-10-16T04:32:49;11.70;;;8.60;;
5912;SDS011;2982;42.684;23.356;2022-10-16T04:35:18;12.27;;;8.23;;
5912;SDS011;2982;42.684;23.356;2022-10-16T04:37:44;11.20;;;8.60;;
5912;SDS011;2982;42.684;23.356;2022-10-16T04:40:10;11.60;;;8.27;;
5912;SDS011;2982;42.684;23.356;2022-10-16T04:42:35;12.23;;;8.50;;
5912;SDS011;2982;42.684;23.356;2022-10-16T04:45:00;9.23;;;8.27;;
5912;SDS011;2982;42.684;23.356;2022-10-16T04:47:26;11.57;;;8.53;;
5912;SDS011;2982;42.684;23.356;2022-10-16T04:49:51;12.73;;;8.43;;
5912;SDS011;2982;42.684;23.356;2022-10-16T04:52:16;13.10;;;9.40;;
5912;SDS011;2982;42.684;23.356;2022-10-16T04:54:42;16.87;;;8.47;;
5912;SDS011;2982;42.684;23.356;2022-10-16T04:57:07;10.83;;;8.20;;
5912;SDS011;2982;42.684;23.356;2022-10-16T04:59:32;13.30;;;8.17;;
5912;SDS011;2982;42.684;23.356;2022-10-16T05:01:57;12.77;;;8.70;;
5912;SDS011;2982;42.684;23.356;2022-10-16T05:04:23;12.37;;;8.40;;
5912;SDS011;2982;42.684;23.356;2022-10-16T05:06:48;13.30;;;9.37;;
5912;SDS011;2982;42.684;23.356;2022-10-16T05:09:14;11.23;;;8.63;;
5912;SDS011;2982;42.684;23.356;2022-10-16T05:11:39;11.00;;;8.70;;
5912;SDS011;2982;42.684;23.356;2022-10-16T05:14:05;15.77;;;9.63;;
5912;SDS011;2982;42.684;23.356;2022-10-16T05:16:30;10.97;;;8.90;;
5912;SDS011;2982;42.684;23.356;2022-10-16T05:18:55;20.20;;;8.90;;
5912;SDS011;2982;42.684;23.356;2022-10-16T05:21:21;12.83;;;9.27;;
5912;SDS011;2982;42.684;23.356;2022-10-16T05:23:46;17.03;;;9.07;;
5912;SDS011;2982;42.684;23.356;2022-10-16T05:26:11;10.13;;;9.00;;
5912;SDS011;2982;42.684;23.356;2022-10-16T05:28:36;10.57;;;9.00;;
5912;SDS011;2982;42.684;23.356;2022-10-16T05:31:05;10.83;;;9.60;;
5912;SDS011;2982;42.684;23.356;2022-10-16T05:33:31;13.37;;;9.13;;
5912;SDS011;2982;42.684;23.356;2022-10-16T05:36:00;19.00;;;15.07;;
5912;SDS011;2982;42.684;23.356;2022-10-16T05:38:27;13.40;;;12.00;;
5912;SDS011;2982;42.684;23.356;2022-10-16T05:40:52;14.68;;;12.05;;
5912;SDS011;2982;42.684;23.356;2022-10-16T05:43:18;16.67;;;11.70;;
5912;SDS011;2982;42.684;23.356;2022-10-16T05:45:44;15.43;;;11.73;;
5912;SDS011;2982;42.684;23.356;2022-10-16T05:48:18;11.68;;;9.98;;
5912;SDS011;2982;42.684;23.356;2022-10-16T05:50:44;19.60;;;11.07;;
5912;SDS011;2982;42.684;23.356;2022-10-16T05:53:09;17.00;;;11.20;;
5912;SDS011;2982;42.684;23.356;2022-10-16T05:55:34;19.00;;;11.83;;
5912;SDS011;2982;42.684;23.356;2022-10-16T05:57:59;11.90;;;10.43;;
5912;SDS011;2982;42.684;23.356;2022-10-16T06:00:30;11.47;;;10.37;;
5912;SDS011;2982;42.684;23.356;2022-10-16T06:02:55;12.43;;;11.17;;
5912;SDS011;2982;42.684;23.356;2022-10-16T06:05:21;10.27;;;9.23;;
5912;SDS011;2982;42.684;23.356;2022-10-16T06:07:46;11.93;;;10.00;;
5912;SDS011;2982;42.684;23.356;2022-10-16T06:10:11;10.83;;;9.83;;
5912;SDS011;2982;42.684;23.356;2022-10-16T06:12:37;11.13;;;10.03;;
5912;SDS011;2982;42.684;23.356;2022-10-16T06:15:02;14.03;;;10.50;;
5912;SDS011;2982;42.684;23.356;2022-10-16T06:17:28;9.57;;;8.60;;
5912;SDS011;2982;42.684;23.356;2022-10-16T06:19:53;10.43;;;9.40;;
5912;SDS011;2982;42.684;23.356;2022-10-16T06:22:18;10.20;;;8.83;;
5912;SDS011;2982;42.684;23.356;2022-10-16T06:24:43;10.27;;;9.17;;
5912;SDS011;2982;42.684;23.356;2022-10-16T06:27:09;10.63;;;8.97;;
5912;SDS011;2982;42.684;23.356;2022-10-16T06:29:34;9.23;;;7.93;;
5912;SDS011;2982;42.684;23.356;2022-10-16T06:31:59;12.63;;;8.20;;
5912;SDS011;2982;42.684;23.356;2022-10-16T06:34:27;12.50;;;8.00;;
5912;SDS011;2982;42.684;23.356;2022-10-16T06:36:53;17.80;;;9.03;;
5912;SDS011;2982;42.684;23.356;2022-10-16T06:39:18;10.20;;;9.20;;
5912;SDS011;2982;42.684;23.356;2022-10-16T06:41:43;15.95;;;11.88;;
5912;SDS011;2982;42.684;23.356;2022-10-16T06:44:08;21.33;;;13.32;;
5912;SDS011;2982;42.684;23.356;2022-10-16T06:46:34;18.67;;;13.40;;
5912;SDS011;2982;42.684;23.356;2022-10-16T06:48:59;15.20;;;11.75;;
5912;SDS011;2982;42.684;23.356;2022-10-16T06:51:25;10.13;;;9.00;;
5912;SDS011;2982;42.684;23.356;2022-10-16T06:53:53;8.40;;;7.60;;
5912;SDS011;2982;42.684;23.356;2022-10-16T06:56:23;14.97;;;8.47;;
5912;SDS011;2982;42.684;23.356;2022-10-16T06:58:50;11.37;;;7.50;;
5912;SDS011;2982;42.684;23.356;2022-10-16T07:01:16;15.75;;;8.07;;
5912;SDS011;2982;42.684;23.356;2022-10-16T07:03:45;10.97;;;9.37;;
5912;SDS011;2982;42.684;23.356;2022-10-16T07:06:12;14.70;;;10.27;;
5912;SDS011;2982;42.684;23.356;2022-10-16T07:08:41;12.25;;;10.90;;
5912;SDS011;2982;42.684;23.356;2022-10-16T07:11:08;14.63;;;10.85;;
5912;SDS011;2982;42.684;23.356;2022-10-16T07:13:36;12.05;;;10.25;;
5912;SDS011;2982;42.684;23.356;2022-10-16T07:18:36;12.18;;;9.48;;
5912;SDS011;2982;42.684;23.356;2022-10-16T07:23:31;10.70;;;9.60;;
5912;SDS011;2982;42.684;23.356;2022-10-16T07:25:56;12.60;;;9.15;;
5912;SDS011;2982;42.684;23.356;2022-10-16T07:28:22;10.40;;;9.18;;
5912;SDS011;2982;42.684;23.356;2022-10-16T07:30:47;9.30;;;7.40;;
5912;SDS011;2982;42.684;23.356;2022-10-16T07:33:13;8.93;;;7.50;;
5912;SDS011;2982;42.684;23.356;2022-10-16T07:35:50;7.97;;;7.38;;
5912;SDS011;2982;42.684;23.356;2022-10-16T07:38:17;8.75;;;8.05;;
5912;SDS011;2982;42.684;23.356;2022-10-16T07:40:43;13.25;;;7.95;;
5912;SDS011;2982;42.684;23.356;2022-10-16T07:43:08;9.38;;;8.05;;
5912;SDS011;2982;42.684;23.356;2022-10-16T07:45:34;7.90;;;7.20;;
5912;SDS011;2982;42.684;23.356;2022-10-16T07:47:59;8.75;;;7.50;;
5912;SDS011;2982;42.684;23.356;2022-10-16T07:50:24;7.93;;;7.13;;
5912;SDS011;2982;42.684;23.356;2022-10-16T07:52:50;9.23;;;7.97;;
5912;SDS011;2982;42.684;23.356;2022-10-16T07:55:15;7.97;;;7.28;;
5912;SDS011;2982;42.684;23.356;2022-10-16T07:57:40;7.43;;;6.82;;
5912;SDS011;2982;42.684;23.356;2022-10-16T08:00:06;11.35;;;7.40;;
5912;SDS011;2982;42.684;23.356;2022-10-16T08:02:32;7.88;;;6.90;;
5912;SDS011;2982;42.684;23.356;2022-10-16T08:04:57;9.15;;;6.32;;
5912;SDS011;2982;42.684;23.356;2022-10-16T08:07:22;6.20;;;5.72;;
5912;SDS011;2982;42.684;23.356;2022-10-16T08:09:51;6.53;;;6.00;;
5912;SDS011;2982;42.684;23.356;2022-10-16T08:12:16;6.38;;;5.90;;
5912;SDS011;2982;42.684;23.356;2022-10-16T08:14:41;6.45;;;5.45;;
5912;SDS011;2982;42.684;23.356;2022-10-16T08:17:06;6.68;;;5.93;;
5912;SDS011;2982;42.684;23.356;2022-10-16T08:19:32;5.43;;;5.03;;
5912;SDS011;2982;42.684;23.356;2022-10-16T08:21:57;8.20;;;5.80;;
5912;SDS011;2982;42.684;23.356;2022-10-16T08:24:22;7.68;;;6.20;;
5912;SDS011;2982;42.684;23.356;2022-10-16T08:26:47;6.05;;;5.45;;
5912;SDS011;2982;42.684;23.356;2022-10-16T08:29:13;5.57;;;5.18;;
5912;SDS011;2982;42.684;23.356;2022-10-16T08:31:39;7.38;;;5.78;;
5912;SDS011;2982;42.684;23.356;2022-10-16T08:34:04;6.47;;;5.88;;
5912;SDS011;2982;42.684;23.356;2022-10-16T08:36:29;6.00;;;4.93;;
5912;SDS011;2982;42.684;23.356;2022-10-16T08:38:55;6.47;;;4.90;;
5912;SDS011;2982;42.684;23.356;2022-10-16T08:44:23;10.77;;;4.20;;
5912;SDS011;2982;42.684;23.356;2022-10-16T08:47:19;6.40;;;3.67;;
5912;SDS011;2982;42.684;23.356;2022-10-16T08:50:21;4.10;;;3.22;;
5912;SDS011;2982;42.684;23.356;2022-10-16T08:52:39;3.70;;;3.40;;
5912;SDS011;2982;42.684;23.356;2022-10-16T08:55:08;5.60;;;3.13;;
5912;SDS011;2982;42.684;23.356;2022-10-16T08:57:50;3.15;;;2.95;;
5912;SDS011;2982;42.684;23.356;2022-10-16T09:00:15;7.03;;;3.78;;
5912;SDS011;2982;42.684;23.356;2022-10-16T09:10:57;8.05;;;3.25;;
5912;SDS011;2982;42.684;23.356;2022-10-16T09:13:40;3.47;;;2.70;;
5912;SDS011;2982;42.684;23.356;2022-10-16T09:16:15;3.72;;;3.28;;
5912;SDS011;2982;42.684;23.356;2022-10-16T09:18:50;5.05;;;2.72;;
5912;SDS011;2982;42.684;23.356;2022-10-16T09:21:25;9.07;;;3.08;;
5912;SDS011;2982;42.684;23.356;2022-10-16T09:23:56;5.90;;;2.70;;
5912;SDS011;2982;42.684;23.356;2022-10-16T09:26:24;3.42;;;3.13;;
5912;SDS011;2982;42.684;23.356;2022-10-16T09:28:51;3.53;;;2.85;;
5912;SDS011;2982;42.684;23.356;2022-10-16T09:31:18;3.60;;;3.38;;
5912;SDS011;2982;42.684;23.356;2022-10-16T09:33:47;3.00;;;2.80;;
5912;SDS011;2982;42.684;23.356;2022-10-16T09:36:17;2.97;;;2.70;;
5912;SDS011;2982;42.684;23.356;2022-10-16T09:38:44;3.50;;;3.20;;
5912;SDS011;2982;42.684;23.356;2022-10-16T09:43:41;4.07;;;2.90;;
5912;SDS011;2982;42.684;23.356;2022-10-16T09:46:25;4.03;;;2.80;;
5912;SDS011;2982;42.684;23.356;2022-10-16T09:48:59;8.75;;;2.90;;
5912;SDS011;2982;42.684;23.356;2022-10-16T09:54:00;3.53;;;2.55;;
5912;SDS011;2982;42.684;23.356;2022-10-16T09:56:33;3.58;;;2.40;;
5912;SDS011;2982;42.684;23.356;2022-10-16T09:59:00;3.70;;;3.40;;
5912;SDS011;2982;42.684;23.356;2022-10-16T10:01:36;3.72;;;3.50;;
5912;SDS011;2982;42.684;23.356;2022-10-16T10:04:05;4.15;;;3.10;;
5912;SDS011;2982;42.684;23.356;2022-10-16T10:06:33;3.17;;;2.75;;
5912;SDS011;2982;42.684;23.356;2022-10-16T10:09:15;3.92;;;2.67;;
5912;SDS011;2982;42.684;23.356;2022-10-16T10:14:24;3.28;;;2.95;;
5912;SDS011;2982;42.684;23.356;2022-10-16T10:17:01;6.07;;;2.45;;
5912;SDS011;2982;42.684;23.356;2022-10-16T10:19:53;2.42;;;2.22;;
5912;SDS011;2982;42.684;23.356;2022-10-16T10:27:45;7.13;;;3.00;;
5912;SDS011;2982;42.684;23.356;2022-10-16T10:35:22;3.42;;;2.90;;
5912;SDS011;2982;42.684;23.356;2022-10-16T10:57:32;2.60;;;2.40;;
5912;SDS011;2982;42.684;23.356;2022-10-16T11:08:43;2.20;;;2.10;;
5912;SDS011;2982;42.684;23.356;2022-10-16T11:11:19;2.15;;;1.88;;
5912;SDS011;2982;42.684;23.356;2022-10-16T11:14:00;2.72;;;2.53;;
5912;SDS011;2982;42.684;23.356;2022-10-16T11:21:46;3.10;;;2.90;;
5912;SDS011;2982;42.684;23.356;2022-10-16T11:27:31;2.20;;;2.00;;
5912;SDS011;2982;42.684;23.356;2022-10-16T11:29:59;2.58;;;2.38;;
5912;SDS011;2982;42.684;23.356;2022-10-16T11:32:33;2.83;;;2.63;;
5912;SDS011;2982;42.684;23.356;2022-10-16T11:35:30;3.67;;;2.40;;
5912;SDS011;2982;42.684;23.356;2022-10-16T11:38:01;2.03;;;1.92;;
5912;SDS011;2982;42.684;23.356;2022-10-16T11:40:29;2.33;;;1.80;;
5912;SDS011;2982;42.684;23.356;2022-10-16T11:43:13;5.20;;;2.20;;
5912;SDS011;2982;42.684;23.356;2022-10-16T11:45:49;4.63;;;2.75;;
5912;SDS011;2982;42.684;23.356;2022-10-16T11:51:08;2.95;;;2.65;;
5912;SDS011;2982;42.684;23.356;2022-10-16T11:56:29;2.70;;;1.83;;
5912;SDS011;2982;42.684;23.356;2022-10-16T11:59:02;3.72;;;1.88;;
5912;SDS011;2982;42.684;23.356;2022-10-16T12:01:42;4.03;;;1.90;;
5912;SDS011;2982;42.684;23.356;2022-10-16T12:04:15;4.00;;;2.35;;
5912;SDS011;2982;42.684;23.356;2022-10-16T12:06:52;4.05;;;2.20;;
5912;SDS011;2982;42.684;23.356;2022-10-16T12:09:28;3.38;;;2.15;;
5912;SDS011;2982;42.684;23.356;2022-10-16T12:11:55;1.83;;;1.73;;
5912;SDS011;2982;42.684;23.356;2022-10-16T12:14:22;2.15;;;2.03;;
5912;SDS011;2982;42.684;23.356;2022-10-16T12:17:04;2.08;;;1.98;;
5912;SDS011;2982;42.684;23.356;2022-10-16T12:20:00;4.53;;;1.85;;
5912;SDS011;2982;42.684;23.356;2022-10-16T12:22:50;3.42;;;2.05;;
5912;SDS011;2982;42.684;23.356;2022-10-16T12:25:19;2.15;;;1.80;;
5912;SDS011;2982;42.684;23.356;2022-10-16T12:28:00;4.65;;;2.05;;
5912;SDS011;2982;42.684;23.356;2022-10-16T12:30:29;3.65;;;1.77;;
5912;SDS011;2982;42.684;23.356;2022-10-16T12:32:57;2.28;;;2.08;;
5912;SDS011;2982;42.684;23.356;2022-10-16T12:35:33;4.70;;;2.25;;
5912;SDS011;2982;42.684;23.356;2022-10-16T12:38:11;2.60;;;2.50;;
5912;SDS011;2982;42.684;23.356;2022-10-16T12:40:42;3.28;;;2.17;;
5912;SDS011;2982;42.684;23.356;2022-10-16T12:43:26;2.28;;;1.98;;
5912;SDS011;2982;42.684;23.356;2022-10-16T12:46:04;3.15;;;2.00;;
5912;SDS011;2982;42.684;23.356;2022-10-16T12:48:46;2.38;;;2.05;;
5912;SDS011;2982;42.684;23.356;2022-10-16T12:51:22;4.50;;;2.45;;
5912;SDS011;2982;42.684;23.356;2022-10-16T13:07:42;2.70;;;2.50;;
5912;SDS011;2982;42.684;23.356;2022-10-16T13:12:51;1.98;;;1.88;;
5912;SDS011;2982;42.684;23.356;2022-10-16T13:18:28;2.65;;;2.42;;
5912;SDS011;2982;42.684;23.356;2022-10-16T13:21:06;3.30;;;1.90;;
5912;SDS011;2982;42.684;23.356;2022-10-16T13:26:35;1.98;;;1.52;;
5912;SDS011;2982;42.684;23.356;2022-10-16T13:29:02;1.95;;;1.75;;
5912;SDS011;2982;42.684;23.356;2022-10-16T13:31:28;2.63;;;2.03;;
5912;SDS011;2982;42.684;23.356;2022-10-16T13:33:57;2.30;;;1.90;;
5912;SDS011;2982;42.684;23.356;2022-10-16T13:36:29;2.33;;;2.10;;
5912;SDS011;2982;42.684;23.356;2022-10-16T13:39:21;3.00;;;2.08;;
5912;SDS011;2982;42.684;23.356;2022-10-16T13:41:57;5.13;;;2.10;;
5912;SDS011;2982;42.684;23.356;2022-10-16T13:44:23;2.17;;;2.08;;
5912;SDS011;2982;42.684;23.356;2022-10-16T13:46:57;5.03;;;1.50;;
5912;SDS011;2982;42.684;23.356;2022-10-16T13:49:23;1.92;;;1.80;;
5912;SDS011;2982;42.684;23.356;2022-10-16T13:51:56;2.33;;;2.17;;
5912;SDS011;2982;42.684;23.356;2022-10-16T13:54:23;4.18;;;2.47;;
5912;SDS011;2982;42.684;23.356;2022-10-16T13:56:50;2.13;;;1.83;;
5912;SDS011;2982;42.684;23.356;2022-10-16T13:59:22;3.70;;;1.80;;
5912;SDS011;2982;42.684;23.356;2022-10-16T14:01:50;1.95;;;1.83;;
5912;SDS011;2982;42.684;23.356;2022-10-16T14:04:18;2.45;;;2.25;;
5912;SDS011;2982;42.684;23.356;2022-10-16T14:06:44;2.15;;;1.95;;
5912;SDS011;2982;42.684;23.356;2022-10-16T14:11:55;2.92;;;2.13;;
5912;SDS011;2982;42.684;23.356;2022-10-16T14:14:32;2.42;;;2.22;;
5912;SDS011;2982;42.684;23.356;2022-10-16T14:17:05;2.10;;;2.00;;
5912;SDS011;2982;42.684;23.356;2022-10-16T14:19:30;2.50;;;2.17;;
5912;SDS011;2982;42.684;23.356;2022-10-16T14:22:14;3.05;;;2.00;;
5912;SDS011;2982;42.684;23.356;2022-10-16T14:24:50;2.50;;;2.30;;
5912;SDS011;2982;42.684;23.356;2022-10-16T14:27:55;4.63;;;2.38;;
5912;SDS011;2982;42.684;23.356;2022-10-16T14:32:33;2.35;;;2.25;;
5912;SDS011;2982;42.684;23.356;2022-10-16T14:34:58;2.28;;;2.08;;
5912;SDS011;2982;42.684;23.356;2022-10-16T14:37:24;2.22;;;2.05;;
5912;SDS011;2982;42.684;23.356;2022-10-16T14:39:51;2.78;;;2.17;;
5912;SDS011;2982;42.684;23.356;2022-10-16T14:42:18;2.28;;;2.08;;
5912;SDS011;2982;42.684;23.356;2022-10-16T14:44:46;3.08;;;2.17;;
5912;SDS011;2982;42.684;23.356;2022-10-16T14:47:16;3.45;;;2.58;;
5912;SDS011;2982;42.684;23.356;2022-10-16T14:49:44;9.90;;;3.00;;
5912;SDS011;2982;42.684;23.356;2022-10-16T14:52:12;5.35;;;2.13;;
5912;SDS011;2982;42.684;23.356;2022-10-16T14:54:48;9.13;;;2.83;;
5912;SDS011;2982;42.684;23.356;2022-10-16T14:57:18;5.10;;;2.40;;
5912;SDS011;2982;42.684;23.356;2022-10-16T14:59:48;2.60;;;2.40;;
5912;SDS011;2982;42.684;23.356;2022-10-16T15:02:23;3.17;;;2.92;;
5912;SDS011;2982;42.684;23.356;2022-10-16T15:07:45;2.53;;;2.33;;
5912;SDS011;2982;42.684;23.356;2022-10-16T15:10:11;3.10;;;2.90;;
5912;SDS011;2982;42.684;23.356;2022-10-16T15:12:38;4.88;;;2.42;;
5912;SDS011;2982;42.684;23.356;2022-10-16T15:15:24;2.00;;;1.88;;
5912;SDS011;2982;42.684;23.356;2022-10-16T15:17:56;4.47;;;2.33;;
5912;SDS011;2982;42.684;23.356;2022-10-16T15:20:25;3.30;;;2.17;;
5912;SDS011;2982;42.684;23.356;2022-10-16T15:22:56;2.88;;;2.50;;
5912;SDS011;2982;42.684;23.356;2022-10-16T15:27:54;2.10;;;1.90;;
5912;SDS011;2982;42.684;23.356;2022-10-16T15:30:23;2.45;;;2.15;;
5912;SDS011;2982;42.684;23.356;2022-10-16T15:32:49;2.67;;;2.00;;
5912;SDS011;2982;42.684;23.356;2022-10-16T15:35:15;2.80;;;2.60;;
5912;SDS011;2982;42.684;23.356;2022-10-16T15:37:40;5.35;;;2.83;;
5912;SDS011;2982;42.684;23.356;2022-10-16T15:40:05;4.75;;;2.83;;
5912;SDS011;2982;42.684;23.356;2022-10-16T15:42:31;2.85;;;2.20;;
5912;SDS011;2982;42.684;23.356;2022-10-16T15:44:57;3.97;;;2.40;;
5912;SDS011;2982;42.684;23.356;2022-10-16T15:47:22;2.60;;;2.40;;
5912;SDS011;2982;42.684;23.356;2022-10-16T15:49:47;5.70;;;3.00;;
5912;SDS011;2982;42.684;23.356;2022-10-16T15:52:13;5.60;;;2.78;;
5912;SDS011;2982;42.684;23.356;2022-10-16T15:54:40;2.22;;;2.13;;
5912;SDS011;2982;42.684;23.356;2022-10-16T15:57:06;4.50;;;2.58;;
5912;SDS011;2982;42.684;23.356;2022-10-16T15:59:34;3.00;;;2.80;;
5912;SDS011;2982;42.684;23.356;2022-10-16T16:02:04;2.85;;;2.65;;
5912;SDS011;2982;42.684;23.356;2022-10-16T16:04:29;6.20;;;3.33;;
5912;SDS011;2982;42.684;23.356;2022-10-16T16:06:55;7.22;;;3.10;;
5912;SDS011;2982;42.684;23.356;2022-10-16T16:09:20;6.00;;;3.65;;
5912;SDS011;2982;42.684;23.356;2022-10-16T16:11:46;4.60;;;4.15;;
5912;SDS011;2982;42.684;23.356;2022-10-16T16:14:14;6.78;;;4.97;;
5912;SDS011;2982;42.684;23.356;2022-10-16T16:16:43;5.47;;;4.95;;
5912;SDS011;2982;42.684;23.356;2022-10-16T16:19:08;5.82;;;3.70;;
5912;SDS011;2982;42.684;23.356;2022-10-16T16:21:34;7.28;;;4.03;;
5912;SDS011;2982;42.684;23.356;2022-10-16T16:24:00;4.97;;;2.85;;
5912;SDS011;2982;42.684;23.356;2022-10-16T16:26:29;4.82;;;3.40;;
5912;SDS011;2982;42.684;23.356;2022-10-16T16:28:55;8.75;;;4.10;;
5912;SDS011;2982;42.684;23.356;2022-10-16T16:31:23;10.68;;;3.85;;
5912;SDS011;2982;42.684;23.356;2022-10-16T16:33:50;10.05;;;3.95;;
5912;SDS011;2982;42.684;23.356;2022-10-16T16:36:16;8.75;;;4.22;;
5912;SDS011;2982;42.684;23.356;2022-10-16T16:38:48;6.18;;;4.07;;
5912;SDS011;2982;42.684;23.356;2022-10-16T16:41:18;9.05;;;4.00;;
5912;SDS011;2982;42.684;23.356;2022-10-16T16:43:46;4.85;;;4.05;;
5912;SDS011;2982;42.684;23.356;2022-10-16T16:46:12;12.02;;;4.40;;
5912;SDS011;2982;42.684;23.356;2022-10-16T16:48:40;5.30;;;4.38;;
5912;SDS011;2982;42.684;23.356;2022-10-16T16:51:07;10.98;;;3.90;;
5912;SDS011;2982;42.684;23.356;2022-10-16T16:53:34;8.63;;;4.30;;
5912;SDS011;2982;42.684;23.356;2022-10-16T16:56:01;7.72;;;3.80;;
5912;SDS011;2982;42.684;23.356;2022-10-16T16:58:28;6.53;;;3.88;;
5912;SDS011;2982;42.684;23.356;2022-10-16T17:00:55;6.93;;;4.43;;
5912;SDS011;2982;42.684;23.356;2022-10-16T17:03:22;5.18;;;3.85;;